createdAt,value
2019-04-04T00:00:23.557Z,99487.81
2019-04-04T00:02:54.212Z,99473.84
2019-04-04T00:05:26.204Z,99489.33
2019-04-04T00:07:58.113Z,99504.82
2019-04-04T00:10:29.341Z,99488.20
2019-04-04T00:13:00.181Z,99489.17
2019-04-04T00:15:30.765Z,99469.33
2019-04-04T00:18:01.317Z,99465.34
2019-04-04T00:20:32.403Z,99486.37
2019-04-04T00:23:02.898Z,99458.86
2019-04-04T00:25:33.459Z,99471.94
2019-04-04T00:28:03.967Z,99463.75
2019-04-04T00:30:34.808Z,99459.25
2019-04-04T00:33:05.342Z,99461.36
2019-04-04T00:35:35.919Z,99460.73
2019-04-04T00:38:07.072Z,99473.48
2019-04-04T00:40:38.144Z,99490.51
2019-04-04T00:43:08.671Z,99497.55
2019-04-04T00:45:39.180Z,99479.84
2019-04-04T00:48:09.669Z,99460.91
2019-04-04T00:50:40.253Z,99430.66
2019-04-04T00:53:11.805Z,99404.80
2019-04-04T00:55:42.918Z,99389.06
2019-04-04T00:58:13.400Z,99361.37
2019-04-04T01:00:44.003Z,99363.91
2019-04-04T01:03:14.511Z,99387.66
2019-04-04T01:05:45.055Z,99442.25
2019-04-04T01:08:15.613Z,99462.30
2019-04-04T01:10:46.294Z,99472.16
2019-04-04T01:13:18.613Z,99413.19
2019-04-04T01:15:49.137Z,99410.56
2019-04-04T01:18:19.677Z,99408.45
2019-04-04T01:20:50.641Z,99413.19
2019-04-04T01:23:22.069Z,99426.08
2019-04-04T01:25:52.565Z,99432.91
2019-04-04T01:28:23.128Z,99430.76
2019-04-04T01:30:53.646Z,99434.45
2019-04-04T01:33:24.146Z,99437.08
2019-04-04T01:35:54.941Z,99433.53
2019-04-04T01:38:27.088Z,99430.07
2019-04-04T01:40:57.699Z,99430.13
2019-04-04T01:43:28.202Z,99424.81
2019-04-04T01:45:58.774Z,99426.86
2019-04-04T01:48:29.294Z,99421.21
2019-04-04T01:50:59.895Z,99424.63
2019-04-04T01:53:30.891Z,99421.09
2019-04-04T01:56:01.478Z,99414.14
2019-04-04T01:58:32.055Z,99413.80
2019-04-04T02:01:02.733Z,99408.22
2019-04-04T02:03:33.349Z,99390.56
2019-04-04T02:06:03.935Z,99385.95
2019-04-04T02:08:34.508Z,99372.52
2019-04-04T02:11:05.931Z,99375.53
2019-04-04T02:13:36.656Z,99375.64
2019-04-04T02:16:07.601Z,99377.77
2019-04-04T02:18:38.077Z,99385.28
2019-04-04T02:21:08.595Z,99373.97
2019-04-04T02:23:39.011Z,99377.20
2019-04-04T02:26:09.534Z,99366.93
2019-04-04T02:28:40.685Z,99372.66
2019-04-04T02:31:11.653Z,99363.05
2019-04-04T02:33:42.176Z,99351.12
2019-04-04T02:36:16.392Z,99350.39
2019-04-04T02:39:03.204Z,99357.57
2019-04-04T02:41:33.766Z,99350.87
2019-04-04T02:44:04.475Z,99349.67
2019-04-04T02:46:34.947Z,99352.18
2019-04-04T02:49:05.467Z,99349.56
2019-04-04T02:51:40.209Z,99340.51
2019-04-04T02:54:08.191Z,99324.39
2019-04-04T02:56:38.721Z,99310.34
2019-04-04T02:59:09.172Z,99315.96
2019-04-04T03:01:39.723Z,99321.83
2019-04-04T03:04:13.510Z,99331.71
2019-04-04T03:06:42.524Z,99328.39
2019-04-04T03:09:13.029Z,99332.72
2019-04-04T03:11:43.983Z,99331.52
2019-04-04T03:14:14.734Z,99324.59
2019-04-04T03:16:45.365Z,99321.48
2019-04-04T03:19:16.161Z,99327.99
2019-04-04T03:21:46.670Z,99336.11
2019-04-04T03:24:17.176Z,99339.34
2019-04-04T03:26:52.300Z,99335.41
2019-04-04T03:29:19.971Z,99329.58
2019-04-04T03:31:50.536Z,99339.27
2019-04-04T03:34:21.057Z,99338.94
2019-04-04T03:36:51.519Z,99347.08
2019-04-04T03:39:22.035Z,99359.31
2019-04-04T03:41:52.514Z,99375.45
2019-04-04T03:44:23.041Z,99389.03
2019-04-04T03:46:53.727Z,99388.91
2019-04-04T03:49:24.768Z,99399.87
2019-04-04T03:51:55.346Z,99397.78
2019-04-04T03:54:28.211Z,99402.66
2019-04-04T03:56:58.709Z,99392.73
2019-04-04T03:59:29.605Z,99394.98
2019-04-04T04:02:01.364Z,99393.84
2019-04-04T04:04:32.072Z,99401.31
2019-04-04T04:07:02.546Z,99401.65
2019-04-04T04:09:33.052Z,99406.19
2019-04-04T04:12:03.568Z,99405.45
2019-04-04T04:14:34.020Z,99413.33
2019-04-04T04:17:04.503Z,99415.81
2019-04-04T04:19:35.037Z,99403.20
2019-04-04T04:22:05.472Z,99394.76
2019-04-04T04:24:35.943Z,99398.22
2019-04-04T04:27:06.441Z,99392.03
2019-04-04T04:29:36.908Z,99387.32
2019-04-04T04:32:07.372Z,99377.88
2019-04-04T04:34:37.908Z,99380.52
2019-04-04T04:37:08.395Z,99386.02
2019-04-04T04:39:41.402Z,99394.19
2019-04-04T04:42:11.172Z,99410.66
2019-04-04T04:44:41.627Z,99407.78
2019-04-04T04:47:12.026Z,99414.58
2019-04-04T04:49:42.571Z,99410.52
2019-04-04T04:52:15.086Z,99404.26
2019-04-04T04:54:45.214Z,99401.89
2019-04-04T04:57:28.841Z,99398.53
2019-04-04T04:59:47.945Z,99400.38
2019-04-04T05:02:22.135Z,99401.22
2019-04-04T05:04:50.662Z,99391.76
2019-04-04T05:07:21.245Z,99381.88
2019-04-04T05:09:51.666Z,99399.63
2019-04-04T05:12:22.289Z,99429.55
2019-04-04T05:14:52.681Z,99433.42
2019-04-04T05:17:23.164Z,99438.17
2019-04-04T05:19:53.658Z,99440.33
2019-04-04T05:22:24.139Z,99433.64
2019-04-04T05:25:07.425Z,99426.00
2019-04-04T05:27:26.875Z,99433.07
2019-04-04T05:29:57.279Z,99436.23
2019-04-04T05:32:27.794Z,99436.43
2019-04-04T05:35:00.874Z,99447.77
2019-04-04T05:37:30.513Z,99443.00
2019-04-04T05:40:01.006Z,99430.58
2019-04-04T05:42:33.008Z,99430.91
2019-04-04T05:45:03.864Z,99432.90
2019-04-04T05:47:34.394Z,99435.92
2019-04-04T05:50:05.817Z,99438.75
2019-04-04T05:52:36.268Z,99449.45
2019-04-04T05:55:09.959Z,99454.43
2019-04-04T05:57:39.701Z,99453.76
2019-04-04T06:00:13.556Z,99438.11
2019-04-04T06:02:44.126Z,99448.31
2019-04-04T06:05:14.828Z,99438.92
2019-04-04T06:07:45.296Z,99452.08
2019-04-04T06:10:18.102Z,99459.28
2019-04-04T06:12:48.041Z,99467.69
2019-04-04T06:15:18.592Z,99457.72
2019-04-04T06:17:49.120Z,99448.67
2019-04-04T06:20:19.601Z,99441.25
2019-04-04T06:22:51.992Z,99449.47
2019-04-04T06:25:22.391Z,99454.45
2019-04-04T06:27:52.883Z,99450.78
2019-04-04T06:30:23.338Z,99444.52
2019-04-04T06:32:53.841Z,99442.23
2019-04-04T06:35:24.255Z,99447.67
2019-04-04T06:37:54.773Z,99450.23
2019-04-04T06:40:25.298Z,99440.00
2019-04-04T06:42:55.753Z,99438.11
2019-04-04T06:45:26.262Z,99441.12
2019-04-04T06:47:57.513Z,99437.72
2019-04-04T06:50:28.621Z,99435.48
2019-04-04T06:52:59.063Z,99430.73
2019-04-04T06:55:29.607Z,99428.56
2019-04-04T06:58:00.019Z,99416.04
2019-04-04T07:00:30.479Z,99404.00
2019-04-04T07:03:00.927Z,99403.86
2019-04-04T07:05:31.365Z,99413.80
2019-04-04T07:08:02.552Z,99420.59
2019-04-04T07:10:33.024Z,99414.50
2019-04-04T07:13:14.820Z,99399.52
2019-04-04T07:15:46.194Z,99399.94
2019-04-04T07:18:07.946Z,99396.65
2019-04-04T07:20:38.407Z,99399.80
2019-04-04T07:23:08.951Z,99404.84
2019-04-04T07:25:39.808Z,99408.18
2019-04-04T07:28:10.711Z,99412.50
2019-04-04T07:30:41.270Z,99432.22
2019-04-04T07:33:12.708Z,99447.30
2019-04-04T07:35:43.385Z,99460.81
2019-04-04T07:38:13.882Z,99468.98
2019-04-04T07:40:44.383Z,99460.21
2019-04-04T07:43:14.879Z,99462.46
2019-04-04T07:45:45.392Z,99463.59
2019-04-04T07:48:17.846Z,99458.33
2019-04-04T07:50:48.032Z,99461.89
2019-04-04T07:53:18.497Z,99450.34
2019-04-04T07:55:48.995Z,99461.01
2019-04-04T07:58:19.496Z,99451.81
2019-04-04T08:00:49.944Z,99447.42
2019-04-04T08:03:20.447Z,99425.56
2019-04-04T08:05:50.965Z,99416.03
2019-04-04T08:08:21.430Z,99422.42
2019-04-04T08:10:52.005Z,99413.87
2019-04-04T08:13:22.477Z,99413.63
2019-04-04T08:15:52.916Z,99412.34
2019-04-04T08:18:23.423Z,99407.31
2019-04-04T08:20:53.871Z,99402.75
2019-04-04T08:23:24.337Z,99398.55
2019-04-04T08:25:54.834Z,99407.13
2019-04-04T08:28:25.279Z,99400.34
2019-04-04T08:30:55.805Z,99400.58
2019-04-04T08:33:26.272Z,99410.36
2019-04-04T08:36:05.808Z,99412.13
2019-04-04T08:38:29.016Z,99422.61
2019-04-04T08:40:59.520Z,99427.58
2019-04-04T08:43:30.009Z,99435.97
2019-04-04T08:46:00.537Z,99432.25
2019-04-04T08:48:31.069Z,99434.36
2019-04-04T08:51:01.583Z,99443.56
2019-04-04T08:53:39.771Z,99448.18
2019-04-04T08:56:04.236Z,99463.08
2019-04-04T08:58:34.731Z,99478.02
2019-04-04T09:01:05.509Z,99474.61
2019-04-04T09:03:36.013Z,99474.09
2019-04-04T09:06:06.482Z,99478.13
2019-04-04T09:08:36.948Z,99479.83
2019-04-04T09:11:07.537Z,99471.64
2019-04-04T09:13:38.132Z,99470.05
2019-04-04T09:16:08.676Z,99476.64
2019-04-04T09:18:58.288Z,99476.20
2019-04-04T09:21:28.922Z,99475.86
2019-04-04T09:24:00.826Z,99475.55
2019-04-04T09:26:31.575Z,99474.50
2019-04-04T09:29:02.048Z,99483.00
2019-04-04T09:31:32.560Z,99480.00
2019-04-04T09:34:03.052Z,99487.97
2019-04-04T09:36:33.569Z,99481.91
2019-04-04T09:39:06.523Z,99485.48
2019-04-04T09:41:37.017Z,99494.11
2019-04-04T09:44:07.495Z,99495.58
2019-04-04T09:46:37.873Z,99485.02
2019-04-04T09:49:08.401Z,99478.80
2019-04-04T09:51:38.854Z,99484.70
2019-04-04T09:54:09.310Z,99491.89
2019-04-04T09:56:39.848Z,99487.91
2019-04-04T09:59:10.334Z,99477.64
2019-04-04T10:01:40.818Z,99469.79
2019-04-04T10:04:11.319Z,99474.40
2019-04-04T10:06:41.785Z,99477.59
2019-04-04T10:09:15.964Z,99478.05
2019-04-04T10:11:44.573Z,99475.62
2019-04-04T10:14:15.164Z,99477.92
2019-04-04T10:16:45.690Z,99474.03
2019-04-04T10:19:16.190Z,99468.83
2019-04-04T10:21:46.664Z,99459.26
2019-04-04T10:24:17.135Z,99462.10
2019-04-04T10:26:47.690Z,99456.97
2019-04-04T10:29:18.136Z,99460.25
2019-04-04T10:31:48.655Z,99464.57
2019-04-04T10:34:19.089Z,99475.48
2019-04-04T10:36:49.575Z,99474.47
2019-04-04T10:39:28.773Z,99473.75
2019-04-04T10:41:52.330Z,99476.48
2019-04-04T10:44:22.821Z,99470.25
2019-04-04T10:46:53.265Z,99469.63
2019-04-04T10:49:23.777Z,99468.66
2019-04-04T10:51:54.278Z,99461.40
2019-04-04T10:54:24.744Z,99467.02
2019-04-04T10:56:55.236Z,99471.13
2019-04-04T10:59:25.768Z,99469.33
2019-04-04T11:01:57.449Z,99478.88
2019-04-04T11:04:28.554Z,99472.95
2019-04-04T11:06:59.124Z,99466.70
2019-04-04T11:09:41.280Z,99474.14
2019-04-04T11:12:01.922Z,99470.66
2019-04-04T11:14:32.372Z,99458.76
2019-04-04T11:17:02.890Z,99457.10
2019-04-04T11:19:33.398Z,99454.46
2019-04-04T11:22:03.900Z,99462.08
2019-04-04T11:24:34.354Z,99468.00
2019-04-04T11:27:04.957Z,99470.16
2019-04-04T11:29:35.465Z,99466.53
2019-04-04T11:32:05.942Z,99465.70
2019-04-04T11:34:36.471Z,99461.08
2019-04-04T11:37:07.016Z,99465.38
2019-04-04T11:39:37.512Z,99468.34
2019-04-04T11:42:08.046Z,99468.98
2019-04-04T11:44:38.517Z,99462.06
2019-04-04T11:47:08.980Z,99470.83
2019-04-04T11:49:39.421Z,99468.02
2019-04-04T11:52:09.950Z,99470.63
2019-04-04T11:54:59.370Z,99475.76
2019-04-04T11:57:29.828Z,99487.17
2019-04-04T12:00:00.451Z,99498.71
2019-04-04T12:02:32.680Z,99499.03
2019-04-04T12:05:03.645Z,99496.75
2019-04-04T12:07:34.252Z,99490.13
2019-04-04T12:10:07.719Z,99497.72
2019-04-04T12:12:37.660Z,99508.47
2019-04-04T12:15:08.807Z,99509.95
2019-04-04T12:17:39.346Z,99509.80
2019-04-04T12:20:10.247Z,99511.28
2019-04-04T12:22:40.783Z,99518.50
2019-04-04T12:25:11.346Z,99518.86
2019-04-04T12:27:41.886Z,99520.17
2019-04-04T12:30:12.840Z,99528.11
2019-04-04T12:32:43.424Z,99525.47
2019-04-04T12:35:14.023Z,99532.23
2019-04-04T12:37:44.564Z,99530.94
2019-04-04T12:40:20.781Z,99524.81
2019-04-04T12:42:47.988Z,99516.72
2019-04-04T12:45:18.689Z,99521.36
2019-04-04T12:47:49.295Z,99519.70
2019-04-04T12:50:19.860Z,99517.21
2019-04-04T12:52:50.401Z,99522.82
2019-04-04T12:55:20.954Z,99519.18
2019-04-04T12:57:51.481Z,99508.92
2019-04-04T13:00:22.045Z,99502.47
2019-04-04T13:02:52.624Z,99499.29
2019-04-04T13:05:23.127Z,99504.63
2019-04-04T13:07:53.583Z,99503.63
2019-04-04T13:10:32.941Z,99506.89
2019-04-04T13:12:56.297Z,99502.25
2019-04-04T13:15:26.833Z,99493.98
2019-04-04T13:17:57.381Z,99493.98
2019-04-04T13:20:27.970Z,99490.34
2019-04-04T13:22:58.492Z,99494.16
2019-04-04T13:25:28.943Z,99495.59
2019-04-04T13:27:59.447Z,99498.06
2019-04-04T13:30:29.914Z,99508.49
2019-04-04T13:33:00.393Z,99514.84
2019-04-04T13:35:30.873Z,99519.81
2019-04-04T13:38:01.374Z,99516.22
2019-04-04T13:40:31.886Z,99518.49
2019-04-04T13:43:02.396Z,99519.84
2019-04-04T13:45:32.893Z,99519.78
2019-04-04T13:48:03.412Z,99515.36
2019-04-04T13:50:33.922Z,99510.00
2019-04-04T13:53:04.437Z,99520.66
2019-04-04T13:55:34.945Z,99519.31
2019-04-04T13:58:05.483Z,99514.92
2019-04-04T14:00:35.980Z,99525.84
2019-04-04T14:03:06.484Z,99521.66
2019-04-04T14:05:37.179Z,99524.88
2019-04-04T14:08:07.650Z,99523.69
2019-04-04T14:10:38.155Z,99523.17
2019-04-04T14:13:08.920Z,99525.17
2019-04-04T14:15:39.433Z,99521.05
2019-04-04T14:18:38.153Z,99513.81
2019-04-04T14:21:03.695Z,99507.03
2019-04-04T14:23:30.460Z,99495.94
2019-04-04T14:26:00.839Z,99495.07
2019-04-04T14:28:31.344Z,99505.87
2019-04-04T14:31:01.885Z,99498.56
2019-04-04T14:33:32.414Z,99492.49
2019-04-04T14:36:02.884Z,99486.91
2019-04-04T14:38:34.921Z,99499.35
2019-04-04T14:41:11.223Z,99504.78
2019-04-04T14:43:37.632Z,99498.47
2019-04-04T14:46:08.136Z,99498.96
2019-04-04T14:48:42.132Z,99497.10
2019-04-04T14:51:10.866Z,99494.86
2019-04-04T14:53:41.473Z,99504.20
2019-04-04T14:56:11.979Z,99508.11
2019-04-04T14:58:42.439Z,99496.48
2019-04-04T15:01:12.979Z,99497.87
2019-04-04T15:03:43.471Z,99505.56
2019-04-04T15:06:13.993Z,99499.40
2019-04-04T15:08:44.425Z,99495.82
2019-04-04T15:11:23.881Z,99491.30
2019-04-04T15:13:47.138Z,99485.73
2019-04-04T15:16:19.550Z,99474.08
2019-04-04T15:18:50.037Z,99470.23
2019-04-04T15:21:20.591Z,99470.02
2019-04-04T15:23:51.183Z,99473.81
2019-04-04T15:26:21.743Z,99474.09
2019-04-04T15:28:52.221Z,99482.27
2019-04-04T15:31:22.786Z,99484.63
2019-04-04T15:33:53.280Z,99484.53
2019-04-04T15:36:23.797Z,99486.28
2019-04-04T15:38:54.360Z,99493.58
2019-04-04T15:41:36.300Z,99496.41
2019-04-04T15:43:57.068Z,99488.93
2019-04-04T15:46:27.702Z,99479.00
2019-04-04T15:48:58.266Z,99479.61
2019-04-04T15:51:28.779Z,99481.81
2019-04-04T15:53:59.292Z,99483.45
2019-04-04T15:56:29.768Z,99490.31
2019-04-04T15:59:00.253Z,99489.99
2019-04-04T16:01:30.800Z,99492.30
2019-04-04T16:04:01.193Z,99489.94
2019-04-04T16:06:31.667Z,99493.23
2019-04-04T16:09:02.132Z,99495.20
2019-04-04T16:11:35.401Z,99495.89
2019-04-04T16:14:09.499Z,99490.11
2019-04-04T16:16:40.101Z,99491.69
2019-04-04T16:19:10.972Z,99493.78
2019-04-04T16:21:41.436Z,99486.95
2019-04-04T16:24:12.043Z,99486.79
2019-04-04T16:26:42.551Z,99484.63
2019-04-04T16:29:13.057Z,99488.63
2019-04-04T16:31:43.562Z,99489.96
2019-04-04T16:34:14.055Z,99494.05
2019-04-04T16:36:44.465Z,99496.09
2019-04-04T16:39:15.019Z,99497.03
2019-04-04T16:41:45.500Z,99498.84
2019-04-04T16:44:15.989Z,99502.30
2019-04-04T16:46:46.546Z,99518.36
2019-04-04T16:49:17.135Z,99522.06
2019-04-04T16:51:47.682Z,99525.55
2019-04-04T16:54:19.101Z,99525.00
2019-04-04T16:56:49.790Z,99533.73
2019-04-04T16:59:20.280Z,99537.53
2019-04-04T17:01:50.872Z,99547.88
2019-04-04T17:04:21.324Z,99551.27
2019-04-04T17:06:54.555Z,99537.10
2019-04-04T17:09:24.245Z,99536.45
2019-04-04T17:11:54.776Z,99537.17
2019-04-04T17:14:25.322Z,99536.55
2019-04-04T17:16:55.964Z,99545.19
2019-04-04T17:19:26.476Z,99549.84
2019-04-04T17:21:57.227Z,99554.50
2019-04-04T17:24:27.813Z,99561.80
2019-04-04T17:26:58.292Z,99560.80
2019-04-04T17:29:28.798Z,99571.06
2019-04-04T17:31:59.509Z,99576.04
2019-04-04T17:34:30.023Z,99578.50
2019-04-04T17:37:00.541Z,99580.48
2019-04-04T17:39:31.458Z,99590.87
2019-04-04T17:42:01.932Z,99596.63
2019-04-04T17:44:32.950Z,99603.88
2019-04-04T17:47:03.719Z,99612.56
2019-04-04T17:49:34.302Z,99621.48
2019-04-04T17:52:04.785Z,99625.77
2019-04-04T17:54:35.311Z,99630.34
2019-04-04T17:57:06.385Z,99623.83
2019-04-04T17:59:36.972Z,99630.53
2019-04-04T18:02:07.515Z,99636.14
2019-04-04T18:04:47.767Z,99641.67
2019-04-04T18:07:10.228Z,99643.12
2019-04-04T18:09:40.724Z,99643.56
2019-04-04T18:12:11.201Z,99647.49
2019-04-04T18:14:41.803Z,99649.80
2019-04-04T18:17:12.342Z,99658.01
2019-04-04T18:19:42.957Z,99651.72
2019-04-04T18:22:13.437Z,99664.83
2019-04-04T18:24:44.020Z,99669.15
2019-04-04T18:27:14.510Z,99673.70
2019-04-04T18:29:44.933Z,99686.22
2019-04-04T18:32:15.505Z,99687.83
2019-04-04T18:34:46.238Z,99695.37
2019-04-04T18:37:17.180Z,99702.61
2019-04-04T18:39:47.934Z,99715.23
2019-04-04T18:42:18.416Z,99710.87
2019-04-04T18:44:48.926Z,99720.94
2019-04-04T18:47:19.492Z,99726.17
2019-04-04T18:49:50.107Z,99732.33
2019-04-04T18:52:20.595Z,99733.46
2019-04-04T18:54:51.367Z,99733.60
2019-04-04T18:57:22.063Z,99728.28
2019-04-04T18:59:52.551Z,99735.43
2019-04-04T19:02:23.173Z,99735.05
2019-04-04T19:04:53.683Z,99723.28
2019-04-04T19:07:24.162Z,99733.59
2019-04-04T19:09:54.817Z,99728.77
2019-04-04T19:12:25.377Z,99729.90
2019-04-04T19:14:56.004Z,99714.67
2019-04-04T19:17:26.630Z,99721.25
2019-04-04T19:19:57.123Z,99711.98
2019-04-04T19:22:27.660Z,99710.48
2019-04-04T19:24:58.244Z,99707.39
2019-04-04T19:27:28.722Z,99700.64
2019-04-04T19:29:59.384Z,99695.04
2019-04-04T19:32:29.927Z,99693.86
2019-04-04T19:35:00.420Z,99693.30
2019-04-04T19:37:30.939Z,99691.75
2019-04-04T19:40:01.515Z,99697.62
2019-04-04T19:42:32.019Z,99703.12
2019-04-04T19:45:02.570Z,99703.26
2019-04-04T19:47:33.120Z,99693.98
2019-04-04T19:50:03.580Z,99689.45
2019-04-04T19:52:34.069Z,99683.25
2019-04-04T19:55:04.718Z,99693.33
2019-04-04T19:57:35.180Z,99689.00
2019-04-04T20:00:06.639Z,99691.26
2019-04-04T20:02:37.320Z,99697.08
2019-04-04T20:05:09.658Z,99699.12
2019-04-04T20:07:40.120Z,99704.52
2019-04-04T20:10:11.055Z,99695.84
2019-04-04T20:12:41.533Z,99694.64
2019-04-04T20:15:13.655Z,99694.64
2019-04-04T20:17:44.186Z,99701.55
2019-04-04T20:20:15.196Z,99700.36
2019-04-04T20:22:45.692Z,99705.36
2019-04-04T20:25:16.286Z,99706.11
2019-04-04T20:27:54.637Z,99701.70
2019-04-04T20:30:23.538Z,99703.73
2019-04-04T20:32:54.041Z,99705.75
2019-04-04T20:35:26.859Z,99707.60
2019-04-04T20:37:56.959Z,99695.63
2019-04-04T20:40:27.601Z,99696.30
2019-04-04T20:42:58.287Z,99691.28
2019-04-04T20:45:28.854Z,99695.09
2019-04-04T20:47:59.525Z,99692.73
2019-04-04T20:50:30.146Z,99692.73
2019-04-04T20:53:00.846Z,99693.66
2019-04-04T20:55:31.414Z,99689.06
2019-04-04T20:58:01.926Z,99685.77
2019-04-04T21:00:32.534Z,99683.78
2019-04-04T21:03:03.086Z,99684.31
2019-04-04T21:05:33.608Z,99681.11
2019-04-04T21:08:04.206Z,99693.45
2019-04-04T21:10:34.739Z,99685.45
2019-04-04T21:13:05.266Z,99690.92
2019-04-04T21:15:35.920Z,99688.09
2019-04-04T21:18:06.473Z,99693.88
2019-04-04T21:20:37.011Z,99697.63
2019-04-04T21:23:07.619Z,99705.34
2019-04-04T21:25:38.187Z,99704.09
2019-04-04T21:28:09.653Z,99699.20
2019-04-04T21:30:40.200Z,99696.40
2019-04-04T21:33:10.643Z,99696.09
2019-04-04T21:35:41.333Z,99703.70
2019-04-04T21:38:11.814Z,99709.26
2019-04-04T21:40:42.307Z,99707.37
2019-04-04T21:43:12.904Z,99707.78
2019-04-04T21:45:43.373Z,99706.41
2019-04-04T21:48:13.858Z,99705.24
2019-04-04T21:50:44.637Z,99705.77
2019-04-04T21:53:15.127Z,99715.55
2019-04-04T21:55:45.584Z,99713.41
2019-04-04T21:58:16.095Z,99724.45
2019-04-04T22:00:46.607Z,99728.92
2019-04-04T22:03:17.103Z,99727.89
2019-04-04T22:05:47.711Z,99725.06
2019-04-04T22:08:18.234Z,99725.00
2019-04-04T22:10:48.790Z,99731.79
2019-04-04T22:13:19.382Z,99733.28
2019-04-04T22:15:49.895Z,99738.95
2019-04-04T22:18:20.378Z,99751.53
2019-04-04T22:20:50.926Z,99749.55
2019-04-04T22:23:21.451Z,99745.73
2019-04-04T22:25:51.946Z,99743.53
2019-04-04T22:28:22.513Z,99742.82
2019-04-04T22:30:53.041Z,99746.84
2019-04-04T22:33:23.582Z,99749.38
2019-04-04T22:35:54.246Z,99752.80
2019-04-04T22:38:24.734Z,99744.76
2019-04-04T22:40:55.242Z,99751.20
2019-04-04T22:43:25.921Z,99759.78
2019-04-04T22:45:56.485Z,99766.48
2019-04-04T22:48:27.019Z,99772.23
2019-04-04T22:50:57.564Z,99774.45
2019-04-04T22:53:28.174Z,99777.49
2019-04-04T22:55:58.641Z,99780.53
2019-04-04T22:58:29.254Z,99787.37
2019-04-04T23:00:59.734Z,99791.81
2019-04-04T23:03:30.271Z,99795.12
2019-04-04T23:06:00.808Z,99803.00
2019-04-04T23:08:31.331Z,99785.03
2019-04-04T23:11:01.812Z,99785.24
2019-04-04T23:13:32.359Z,99780.17
2019-04-04T23:16:02.884Z,99789.83
2019-04-04T23:18:33.345Z,99785.16
2019-04-04T23:21:03.901Z,99789.50
2019-04-04T23:23:34.465Z,99796.06
2019-04-04T23:26:05.027Z,99800.42
2019-04-04T23:28:35.593Z,99802.37
2019-04-04T23:31:06.099Z,99800.30
2019-04-04T23:33:36.559Z,99797.16
2019-04-04T23:36:07.128Z,99799.83
2019-04-04T23:38:37.617Z,99804.31
2019-04-04T23:41:08.107Z,99800.50
2019-04-04T23:43:38.646Z,99801.82
2019-04-04T23:46:09.122Z,99793.64
2019-04-04T23:48:39.688Z,99785.72
2019-04-04T23:51:10.203Z,99783.43
2019-04-04T23:53:40.727Z,99777.12
2019-04-04T23:56:11.201Z,99775.05
2019-04-04T23:58:41.763Z,99787.38
